createdAt,value
2017-03-18T00:00:30.208Z,7.63
2017-03-18T00:01:29.869Z,7.47
2017-03-18T00:02:29.858Z,7.47
2017-03-18T00:03:30.167Z,7.39
2017-03-18T00:04:29.826Z,7.56
2017-03-18T00:05:30.089Z,7.56
2017-03-18T00:06:30.068Z,7.57
2017-03-18T00:07:29.756Z,7.45
2017-03-18T00:08:30.030Z,7.38
2017-03-18T00:09:29.695Z,7.45
2017-03-18T00:10:29.994Z,7.29
2017-03-18T00:11:29.955Z,7.27
2017-03-18T00:12:29.934Z,7.31
2017-03-18T00:13:29.625Z,7.41
2017-03-18T00:14:29.593Z,7.27
2017-03-18T00:15:29.873Z,7.41
2017-03-18T00:16:29.862Z,7.49
2017-03-18T00:17:29.821Z,7.44
2017-03-18T00:18:29.499Z,7.42
2017-03-18T00:19:29.798Z,7.57
2017-03-18T00:20:29.480Z,7.45
2017-03-18T00:21:29.436Z,7.41
2017-03-18T00:22:29.410Z,7.35
2017-03-18T00:23:29.379Z,7.42
2017-03-18T00:24:29.360Z,7.44
2017-03-18T00:25:29.648Z,7.42
2017-03-18T00:26:29.615Z,7.45
2017-03-18T00:27:29.613Z,7.12
2017-03-18T00:28:29.056Z,7.06
2017-03-18T00:29:29.557Z,7.19
2017-03-18T00:30:29.525Z,7.09
2017-03-18T00:31:29.503Z,7.17
2017-03-18T00:32:28.974Z,7.01
2017-03-18T00:33:29.474Z,6.81
2017-03-18T00:34:29.172Z,7.05
2017-03-18T00:35:29.422Z,7.04
2017-03-18T00:36:29.480Z,7.11
2017-03-18T00:37:29.376Z,7.11
2017-03-18T00:38:29.050Z,7.02
2017-03-18T00:39:29.388Z,7.16
2017-03-18T00:40:29.069Z,7.3
2017-03-18T00:41:29.338Z,7.16
2017-03-18T00:42:29.278Z,7.23
2017-03-18T00:43:28.932Z,7.05
2017-03-18T00:44:29.248Z,6.88
2017-03-18T00:45:28.887Z,6.87
2017-03-18T00:46:28.865Z,6.99
2017-03-18T00:47:29.198Z,6.87
2017-03-18T00:48:28.813Z,6.93
2017-03-18T00:49:28.800Z,7.08
2017-03-18T00:50:29.118Z,7.2
2017-03-18T00:51:29.101Z,7.17
2017-03-18T00:52:28.722Z,7.12
2017-03-18T00:53:29.012Z,7.14
2017-03-18T00:54:29.002Z,7.08
2017-03-18T00:55:29.001Z,7.42
2017-03-18T00:56:28.682Z,7.82
2017-03-18T00:57:29.001Z,8.19
2017-03-18T00:58:28.594Z,8.11
2017-03-18T00:59:28.927Z,8.34
2017-03-18T01:00:28.879Z,8.21
2017-03-18T01:01:28.509Z,7.45
2017-03-18T01:02:28.488Z,7.35
2017-03-18T01:03:28.799Z,7.16
2017-03-18T01:04:28.447Z,7.01
2017-03-18T01:05:28.425Z,7.19
2017-03-18T01:06:28.718Z,7.2
2017-03-18T01:07:28.714Z,7.21
2017-03-18T01:08:28.677Z,7.16
2017-03-18T01:09:28.730Z,7.23
2017-03-18T01:10:28.617Z,7.02
2017-03-18T01:11:28.592Z,6.9
2017-03-18T01:12:28.582Z,6.91
2017-03-18T01:13:27.940Z,6.93
2017-03-18T01:14:28.535Z,6.75
2017-03-18T01:15:28.532Z,6.93
2017-03-18T01:16:28.522Z,7.04
2017-03-18T01:17:28.140Z,6.96
2017-03-18T01:18:28.479Z,6.98
2017-03-18T01:19:28.410Z,6.93
2017-03-18T01:20:28.378Z,6.87
2017-03-18T01:21:28.363Z,6.94
2017-03-18T01:22:28.027Z,7.17
2017-03-18T01:23:28.020Z,6.91
2017-03-18T01:24:28.296Z,6.81
2017-03-18T01:25:28.256Z,6.88
2017-03-18T01:26:28.245Z,6.78
2017-03-18T01:27:28.256Z,6.94
2017-03-18T01:28:28.196Z,6.94
2017-03-18T01:29:28.194Z,7.02
2017-03-18T01:30:27.847Z,7.02
2017-03-18T01:31:28.122Z,7.05
2017-03-18T01:32:28.113Z,7.09
2017-03-18T01:33:28.167Z,7.06
2017-03-18T01:34:28.061Z,7.21
2017-03-18T01:35:28.050Z,7.21
2017-03-18T01:36:27.710Z,7.08
2017-03-18T01:37:27.429Z,7.21
2017-03-18T01:38:27.660Z,7.29
2017-03-18T01:39:27.945Z,7.21
2017-03-18T01:40:27.917Z,7.24
2017-03-18T01:41:27.919Z,7.48
2017-03-18T01:42:27.897Z,7.27
2017-03-18T01:43:27.258Z,7.19
2017-03-18T01:44:27.828Z,7.19
2017-03-18T01:45:27.814Z,7.21
2017-03-18T01:46:27.790Z,7.29
2017-03-18T01:47:27.754Z,7.39
2017-03-18T01:48:27.493Z,7.41
2017-03-18T01:49:27.714Z,7.44
2017-03-18T01:50:27.072Z,7.42
2017-03-18T01:51:27.662Z,7.44
2017-03-18T01:52:27.641Z,7.53
2017-03-18T01:53:27.626Z,7.62
2017-03-18T01:54:27.600Z,7.48
2017-03-18T01:55:27.561Z,7.56
2017-03-18T01:56:27.544Z,7.63
2017-03-18T01:57:27.225Z,7.68
2017-03-18T01:58:27.519Z,7.72
2017-03-18T01:59:26.988Z,7.68
2017-03-18T02:00:27.469Z,7.76
2017-03-18T02:01:27.187Z,7.75
2017-03-18T02:02:26.796Z,7.7
2017-03-18T02:03:27.392Z,7.73
2017-03-18T02:04:27.088Z,7.7
2017-03-18T02:05:27.339Z,7.64
2017-03-18T02:06:27.016Z,7.76
2017-03-18T02:07:27.294Z,7.72
2017-03-18T02:08:27.288Z,7.75
2017-03-18T02:09:26.716Z,7.73
2017-03-18T02:10:26.929Z,7.75
2017-03-18T02:11:27.221Z,7.91
2017-03-18T02:12:27.180Z,7.68
2017-03-18T02:13:26.889Z,7.7
2017-03-18T02:14:27.144Z,7.7
2017-03-18T02:15:27.127Z,7.67
2017-03-18T02:16:27.079Z,7.75
2017-03-18T02:17:26.778Z,7.68
2017-03-18T02:18:27.048Z,7.73
2017-03-18T02:19:27.035Z,7.82
2017-03-18T02:20:26.395Z,7.78
2017-03-18T02:21:26.973Z,7.78
2017-03-18T02:22:26.954Z,7.68
2017-03-18T02:23:26.632Z,7.75
2017-03-18T02:24:26.323Z,7.78
2017-03-18T02:25:26.587Z,7.81
2017-03-18T02:26:26.873Z,7.93
2017-03-18T02:27:26.854Z,7.86
2017-03-18T02:28:26.878Z,7.85
2017-03-18T02:29:26.801Z,7.86
2017-03-18T02:30:26.770Z,7.86
2017-03-18T02:31:26.760Z,7.76
2017-03-18T02:32:26.430Z,7.79
2017-03-18T02:33:26.390Z,7.86
2017-03-18T02:34:26.714Z,7.93
2017-03-18T02:35:26.367Z,7.88
2017-03-18T02:36:26.643Z,7.93
2017-03-18T02:37:26.624Z,7.9
2017-03-18T02:38:26.597Z,7.9
2017-03-18T02:39:26.589Z,7.83
2017-03-18T02:40:26.237Z,7.91
2017-03-18T02:41:26.514Z,7.9
2017-03-18T02:42:26.214Z,7.93
2017-03-18T02:43:26.176Z,7.91
2017-03-18T02:44:26.460Z,7.99
2017-03-18T02:45:26.435Z,7.91
2017-03-18T02:46:26.113Z,7.86
2017-03-18T02:47:26.094Z,7.81
2017-03-18T02:48:26.072Z,7.83
2017-03-18T02:49:26.358Z,7.83
2017-03-18T02:50:26.332Z,7.96
2017-03-18T02:51:26.000Z,7.86
2017-03-18T02:52:26.021Z,7.91
2017-03-18T02:53:25.960Z,7.96
2017-03-18T02:54:25.999Z,7.97
2017-03-18T02:55:26.217Z,7.78
2017-03-18T02:56:25.885Z,7.85
2017-03-18T02:57:25.859Z,7.88
2017-03-18T02:58:25.858Z,7.88
2017-03-18T02:59:25.838Z,7.91
2017-03-18T03:00:26.113Z,7.76
2017-03-18T03:01:26.084Z,7.76
2017-03-18T03:02:26.062Z,7.88
2017-03-18T03:03:26.043Z,7.91
2017-03-18T03:04:25.400Z,7.75
2017-03-18T03:05:25.686Z,7.67
2017-03-18T03:06:25.393Z,7.73
2017-03-18T03:07:25.942Z,7.79
2017-03-18T03:08:26.012Z,7.81
2017-03-18T03:09:25.611Z,7.79
2017-03-18T03:10:25.630Z,7.85
2017-03-18T03:11:25.221Z,7.81
2017-03-18T03:12:25.522Z,7.79
2017-03-18T03:13:25.848Z,7.88
2017-03-18T03:14:25.892Z,7.86
2017-03-18T03:15:25.139Z,7.86
2017-03-18T03:16:25.558Z,7.94
2017-03-18T03:17:25.710Z,7.88
2017-03-18T03:18:25.404Z,7.99
2017-03-18T03:19:25.770Z,7.99
2017-03-18T03:20:25.715Z,7.93
2017-03-18T03:21:25.324Z,7.93
2017-03-18T03:22:25.695Z,7.83
2017-03-18T03:23:24.964Z,7.88
2017-03-18T03:24:24.965Z,7.9
2017-03-18T03:25:25.536Z,7.86
2017-03-18T03:26:25.245Z,8.01
2017-03-18T03:27:25.171Z,7.99
2017-03-18T03:28:25.240Z,7.96
2017-03-18T03:29:24.834Z,7.94
2017-03-18T03:30:25.416Z,7.86
2017-03-18T03:31:25.387Z,7.97
2017-03-18T03:32:25.097Z,8.01
2017-03-18T03:33:25.449Z,7.94
2017-03-18T03:34:25.354Z,7.93
2017-03-18T03:35:25.444Z,8.04
2017-03-18T03:36:25.289Z,7.91
2017-03-18T03:37:24.636Z,8
2017-03-18T03:38:24.917Z,8.06
2017-03-18T03:39:25.214Z,7.94
2017-03-18T03:40:25.179Z,7.91
2017-03-18T03:41:24.944Z,8.03
2017-03-18T03:42:25.166Z,8.07
2017-03-18T03:43:25.107Z,8.07
2017-03-18T03:44:25.232Z,7.99
2017-03-18T03:45:24.870Z,8.12
2017-03-18T03:46:25.053Z,8.24
2017-03-18T03:47:25.030Z,8.11
2017-03-18T03:48:25.013Z,8.09
2017-03-18T03:49:24.989Z,8.14
2017-03-18T03:50:24.673Z,8.12
2017-03-18T03:51:24.676Z,8.19
2017-03-18T03:52:24.907Z,8.11
2017-03-18T03:53:24.608Z,8.14
2017-03-18T03:54:24.559Z,8.14
2017-03-18T03:55:24.539Z,8.15
2017-03-18T03:56:24.526Z,8.25
2017-03-18T03:57:24.786Z,8.29
2017-03-18T03:58:24.782Z,8.22
2017-03-18T03:59:24.464Z,8.19
2017-03-18T04:00:24.434Z,8.19
2017-03-18T04:01:24.708Z,8.27
2017-03-18T04:02:24.702Z,8.3
2017-03-18T04:03:24.052Z,8.29
2017-03-18T04:04:24.642Z,8.32
2017-03-18T04:05:24.331Z,8.34
2017-03-18T04:06:24.605Z,8.29
2017-03-18T04:07:24.581Z,8.37
2017-03-18T04:08:24.553Z,8.32
2017-03-18T04:09:24.220Z,8.29
2017-03-18T04:10:24.224Z,8.32
2017-03-18T04:11:24.179Z,8.3
2017-03-18T04:12:24.169Z,8.4
2017-03-18T04:13:24.458Z,8.37
2017-03-18T04:14:24.430Z,8.45
2017-03-18T04:15:24.406Z,8.42
2017-03-18T04:16:24.384Z,8.51
2017-03-18T04:17:24.349Z,8.45
2017-03-18T04:18:24.035Z,8.39
2017-03-18T04:19:24.031Z,8.5
2017-03-18T04:20:23.985Z,8.5
2017-03-18T04:21:24.265Z,8.57
2017-03-18T04:22:23.952Z,8.5
2017-03-18T04:23:24.212Z,8.42
2017-03-18T04:24:24.183Z,8.52
2017-03-18T04:25:23.885Z,8.48
2017-03-18T04:26:23.865Z,8.52
2017-03-18T04:27:23.831Z,8.55
2017-03-18T04:28:24.111Z,8.55
2017-03-18T04:29:24.079Z,8.51
2017-03-18T04:30:24.063Z,8.52
2017-03-18T04:31:24.038Z,8.62
2017-03-18T04:32:24.026Z,8.61
2017-03-18T04:33:23.997Z,8.58
2017-03-18T04:34:23.682Z,8.66
2017-03-18T04:35:23.641Z,8.62
2017-03-18T04:36:23.937Z,8.61
2017-03-18T04:37:23.906Z,8.66
2017-03-18T04:38:23.881Z,8.67
2017-03-18T04:39:23.574Z,8.66
2017-03-18T04:40:23.835Z,8.65
2017-03-18T04:41:23.817Z,8.77
2017-03-18T04:42:23.795Z,8.7
2017-03-18T04:43:23.772Z,8.77
2017-03-18T04:44:23.454Z,8.8
2017-03-18T04:45:23.729Z,8.77
2017-03-18T04:46:23.409Z,8.72
2017-03-18T04:47:23.676Z,8.77
2017-03-18T04:48:23.358Z,8.8
2017-03-18T04:49:23.629Z,8.8
2017-03-18T04:50:23.325Z,8.83
2017-03-18T04:51:22.984Z,8.9
2017-03-18T04:52:23.597Z,8.88
2017-03-18T04:53:23.241Z,8.93
2017-03-18T04:54:23.216Z,8.84
2017-03-18T04:55:23.507Z,8.8
2017-03-18T04:56:23.485Z,8.9
2017-03-18T04:57:23.494Z,8.94
2017-03-18T04:58:23.455Z,8.88
2017-03-18T04:59:23.440Z,8.77
2017-03-18T05:00:22.839Z,8.91
2017-03-18T05:01:23.484Z,8.85
2017-03-18T05:02:23.342Z,8.79
2017-03-18T05:03:23.379Z,8.85
2017-03-18T05:04:23.003Z,8.88
2017-03-18T05:05:23.269Z,8.76
2017-03-18T05:06:22.958Z,8.88
2017-03-18T05:07:23.259Z,8.85
2017-03-18T05:08:22.610Z,8.9
2017-03-18T05:09:23.196Z,8.95
2017-03-18T05:10:23.180Z,8.94
2017-03-18T05:11:23.146Z,9.05
2017-03-18T05:12:23.131Z,9.05
2017-03-18T05:13:23.136Z,9.06
2017-03-18T05:14:23.100Z,9.06
2017-03-18T05:15:23.182Z,9.03
2017-03-18T05:16:23.046Z,9.06
2017-03-18T05:17:23.095Z,8.94
2017-03-18T05:18:22.994Z,9.03
2017-03-18T05:19:22.993Z,9
2017-03-18T05:20:22.934Z,9.06
2017-03-18T05:21:23.062Z,9.02
2017-03-18T05:22:22.914Z,9.09
2017-03-18T05:23:22.901Z,9.06
2017-03-18T05:24:22.900Z,9.02
2017-03-18T05:25:22.897Z,8.98
2017-03-18T05:26:22.517Z,9.02
2017-03-18T05:27:22.514Z,9.06
2017-03-18T05:28:22.778Z,9.14
2017-03-18T05:29:22.456Z,9.17
2017-03-18T05:30:22.736Z,9.21
2017-03-18T05:31:22.110Z,9.13
2017-03-18T05:32:22.376Z,9.17
2017-03-18T05:33:22.693Z,9.19
2017-03-18T05:34:22.350Z,9.21
2017-03-18T05:35:22.325Z,9.13
2017-03-18T05:36:22.303Z,9.19
2017-03-18T05:37:22.635Z,9.22
2017-03-18T05:38:22.556Z,9.16
2017-03-18T05:39:22.543Z,9.25
2017-03-18T05:40:21.895Z,9.24
2017-03-18T05:41:22.201Z,9.19
2017-03-18T05:42:22.177Z,9.28
2017-03-18T05:43:22.461Z,9.35
2017-03-18T05:44:22.142Z,9.34
2017-03-18T05:45:22.224Z,9.35
2017-03-18T05:46:22.083Z,9.34
2017-03-18T05:47:22.400Z,9.32
2017-03-18T05:48:22.349Z,9.37
2017-03-18T05:49:22.376Z,9.21
2017-03-18T05:50:22.306Z,9.27
2017-03-18T05:51:22.276Z,9.29
2017-03-18T05:52:21.957Z,9.25
2017-03-18T05:53:21.968Z,9.28
2017-03-18T05:54:22.218Z,9.31
2017-03-18T05:55:22.275Z,9.29
2017-03-18T05:56:22.165Z,9.42
2017-03-18T05:57:22.284Z,9.27
2017-03-18T05:58:22.144Z,9.34
2017-03-18T05:59:21.863Z,9.31
2017-03-18T06:00:21.472Z,9.47
2017-03-18T06:01:22.078Z,9.43
2017-03-18T06:02:21.735Z,9.46
2017-03-18T06:03:22.044Z,9.42
2017-03-18T06:04:21.699Z,9.49
2017-03-18T06:05:21.678Z,9.46
2017-03-18T06:06:22.015Z,9.54
2017-03-18T06:07:21.627Z,9.52
2017-03-18T06:08:21.667Z,9.61
2017-03-18T06:09:21.967Z,9.6
2017-03-18T06:10:21.868Z,9.6
2017-03-18T06:11:21.853Z,9.54
2017-03-18T06:12:21.831Z,9.6
2017-03-18T06:13:21.894Z,9.58
2017-03-18T06:14:21.903Z,9.65
2017-03-18T06:15:21.433Z,9.65
2017-03-18T06:16:21.737Z,9.79
2017-03-18T06:17:21.805Z,9.83
2017-03-18T06:18:21.095Z,9.83
2017-03-18T06:19:21.370Z,9.8
2017-03-18T06:20:21.731Z,9.82
2017-03-18T06:21:21.430Z,9.85
2017-03-18T06:22:21.427Z,9.89
2017-03-18T06:23:21.708Z,9.89
2017-03-18T06:24:21.251Z,9.87
2017-03-18T06:25:21.349Z,9.97
2017-03-18T06:26:21.229Z,10.05
2017-03-18T06:27:21.190Z,10.04
2017-03-18T06:28:21.570Z,10.01
2017-03-18T06:29:21.229Z,10.04
2017-03-18T06:30:21.155Z,10.11
2017-03-18T06:31:21.175Z,10.16
2017-03-18T06:32:21.104Z,10.15
2017-03-18T06:33:21.084Z,10.1
2017-03-18T06:34:21.397Z,10.19
2017-03-18T06:35:20.726Z,10.16
2017-03-18T06:36:21.310Z,10.19
2017-03-18T06:37:21.394Z,10.21
2017-03-18T06:38:21.274Z,10.18
2017-03-18T06:39:20.957Z,10.15
2017-03-18T06:40:21.363Z,10.26
2017-03-18T06:41:21.209Z,10.3
2017-03-18T06:42:20.591Z,10.3
2017-03-18T06:43:20.890Z,10.37
2017-03-18T06:44:21.260Z,10.4
2017-03-18T06:45:20.819Z,10.47
2017-03-18T06:46:20.805Z,10.48
2017-03-18T06:47:21.086Z,10.53
2017-03-18T06:48:20.457Z,10.43
2017-03-18T06:49:21.052Z,10.55
2017-03-18T06:50:21.056Z,10.53
2017-03-18T06:51:20.992Z,10.52
2017-03-18T06:52:20.993Z,10.55
2017-03-18T06:53:20.976Z,10.53
2017-03-18T06:54:20.945Z,10.64
2017-03-18T06:55:20.657Z,10.6
2017-03-18T06:56:20.596Z,10.53
2017-03-18T06:57:20.563Z,10.48
2017-03-18T06:58:20.547Z,10.71
2017-03-18T06:59:20.260Z,10.75
2017-03-18T07:00:20.821Z,10.69
2017-03-18T07:01:20.799Z,10.63
2017-03-18T07:02:20.771Z,10.67
2017-03-18T07:03:20.771Z,10.74
2017-03-18T07:04:20.730Z,10.72
2017-03-18T07:05:20.737Z,10.71
2017-03-18T07:06:20.699Z,10.71
2017-03-18T07:07:20.350Z,10.72
2017-03-18T07:08:20.634Z,10.8
2017-03-18T07:09:20.632Z,10.82
2017-03-18T07:10:20.297Z,10.84
2017-03-18T07:11:20.586Z,10.77
2017-03-18T07:12:20.581Z,10.9
2017-03-18T07:13:20.549Z,10.9
2017-03-18T07:14:19.919Z,10.84
2017-03-18T07:15:20.194Z,10.89
2017-03-18T07:16:20.192Z,10.93
2017-03-18T07:17:20.509Z,10.9
2017-03-18T07:18:20.449Z,10.87
2017-03-18T07:19:20.118Z,10.87
2017-03-18T07:20:20.092Z,10.85
2017-03-18T07:21:20.073Z,10.92
2017-03-18T07:22:20.050Z,10.92
2017-03-18T07:23:20.143Z,10.95
2017-03-18T07:24:19.709Z,10.89
2017-03-18T07:25:19.986Z,11.02
2017-03-18T07:26:19.979Z,10.93
2017-03-18T07:27:20.247Z,10.95
2017-03-18T07:28:19.933Z,11
2017-03-18T07:29:20.008Z,10.95
2017-03-18T07:30:19.899Z,10.96
2017-03-18T07:31:20.116Z,11.03
2017-03-18T07:32:20.154Z,11
2017-03-18T07:33:19.836Z,10.98
2017-03-18T07:34:20.109Z,11.02
2017-03-18T07:35:19.795Z,11
2017-03-18T07:36:20.080Z,11.02
2017-03-18T07:37:19.440Z,11
2017-03-18T07:38:19.729Z,11.05
2017-03-18T07:39:20.013Z,11.03
2017-03-18T07:40:20.009Z,11.08
2017-03-18T07:41:19.974Z,11
2017-03-18T07:42:19.975Z,11.03
2017-03-18T07:43:19.947Z,11.02
2017-03-18T07:44:19.303Z,11.03
2017-03-18T07:45:19.593Z,11.14
2017-03-18T07:46:19.560Z,11.08
2017-03-18T07:47:19.846Z,11.03
2017-03-18T07:48:19.996Z,11.08
2017-03-18T07:49:19.805Z,11.13
2017-03-18T07:50:19.835Z,11.03
2017-03-18T07:51:19.544Z,11.05
2017-03-18T07:52:19.747Z,11.11
2017-03-18T07:53:19.757Z,11.17
2017-03-18T07:54:19.731Z,11.1
2017-03-18T07:55:19.696Z,11.15
2017-03-18T07:56:19.694Z,11.08
2017-03-18T07:57:19.660Z,11.05
2017-03-18T07:58:19.641Z,11.13
2017-03-18T07:59:19.615Z,11.05
2017-03-18T08:00:19.280Z,11.15
2017-03-18T08:01:19.575Z,11.05
2017-03-18T08:02:19.540Z,11.21
2017-03-18T08:03:19.318Z,11.21
2017-03-18T08:04:19.500Z,11.23
2017-03-18T08:05:19.497Z,11.14
2017-03-18T08:06:19.172Z,11.17
2017-03-18T08:07:19.455Z,11.21
2017-03-18T08:08:19.446Z,11.29
2017-03-18T08:09:19.454Z,11.28
2017-03-18T08:10:19.394Z,11.24
2017-03-18T08:11:19.366Z,11.32
2017-03-18T08:12:19.347Z,11.33
2017-03-18T08:13:19.033Z,11.33
2017-03-18T08:14:19.146Z,11.29
2017-03-18T08:15:19.283Z,11.33
2017-03-18T08:16:18.970Z,11.33
2017-03-18T08:17:18.939Z,11.24
2017-03-18T08:18:19.280Z,11.33
2017-03-18T08:19:19.197Z,11.31
2017-03-18T08:20:19.201Z,11.33
2017-03-18T08:21:19.168Z,11.32
2017-03-18T08:22:18.849Z,11.35
2017-03-18T08:23:19.146Z,11.33
2017-03-18T08:24:19.137Z,11.42
2017-03-18T08:25:18.797Z,11.46
2017-03-18T08:26:19.075Z,11.42
2017-03-18T08:27:19.036Z,11.53
2017-03-18T08:28:18.822Z,11.56
2017-03-18T08:29:19.020Z,11.48
2017-03-18T08:30:18.981Z,11.53
2017-03-18T08:31:18.968Z,11.48
2017-03-18T08:32:18.946Z,11.33
2017-03-18T08:33:18.952Z,11.32
2017-03-18T08:34:18.920Z,11.39
2017-03-18T08:35:18.880Z,11.24
2017-03-18T08:36:18.863Z,11.33
2017-03-18T08:37:18.270Z,11.46
2017-03-18T08:38:18.872Z,11.42
2017-03-18T08:39:18.839Z,11.39
2017-03-18T08:40:18.792Z,11.53
2017-03-18T08:41:18.771Z,11.56
2017-03-18T08:42:18.747Z,11.56
2017-03-18T08:43:18.722Z,11.57
2017-03-18T08:44:18.411Z,11.6
2017-03-18T08:45:18.390Z,11.54
2017-03-18T08:46:18.670Z,11.54
2017-03-18T08:47:18.684Z,11.43
2017-03-18T08:48:18.626Z,11.53
2017-03-18T08:49:18.617Z,11.58
2017-03-18T08:50:18.593Z,11.54
2017-03-18T08:51:18.587Z,11.64
2017-03-18T08:52:18.570Z,11.64
2017-03-18T08:53:18.545Z,11.58
2017-03-18T08:54:18.231Z,11.6
2017-03-18T08:55:18.507Z,11.56
2017-03-18T08:56:18.475Z,11.56
2017-03-18T08:57:18.459Z,11.51
2017-03-18T08:58:18.424Z,11.42
2017-03-18T08:59:18.410Z,11.47
2017-03-18T09:00:18.417Z,11.38
2017-03-18T09:01:18.076Z,11.38
2017-03-18T09:02:18.356Z,11.35
2017-03-18T09:03:18.335Z,11.24
2017-03-18T09:04:18.316Z,11.28
2017-03-18T09:05:17.996Z,11.26
2017-03-18T09:06:18.283Z,11.29
2017-03-18T09:07:18.285Z,11.06
2017-03-18T09:08:17.932Z,11.17
2017-03-18T09:09:18.026Z,11.2
2017-03-18T09:10:18.232Z,11.33
2017-03-18T09:11:17.933Z,11.26
2017-03-18T09:12:18.196Z,11.24
2017-03-18T09:13:18.143Z,11.54
2017-03-18T09:14:18.179Z,11.46
2017-03-18T09:15:18.104Z,11.58
2017-03-18T09:16:18.129Z,11.72
2017-03-18T09:17:18.070Z,11.72
2017-03-18T09:18:17.730Z,11.84
2017-03-18T09:19:18.030Z,11.94
2017-03-18T09:20:17.699Z,11.87
2017-03-18T09:21:18.001Z,11.89
2017-03-18T09:22:17.668Z,11.98
2017-03-18T09:23:17.940Z,12.02
2017-03-18T09:24:17.935Z,11.91
2017-03-18T09:25:17.903Z,11.91
2017-03-18T09:26:17.904Z,11.97
2017-03-18T09:27:17.887Z,12.09
2017-03-18T09:28:17.850Z,12.2
2017-03-18T09:29:17.843Z,12.34
2017-03-18T09:30:17.810Z,12.35
2017-03-18T09:31:17.825Z,12.21
2017-03-18T09:32:17.761Z,12.17
2017-03-18T09:33:17.567Z,12.06
2017-03-18T09:34:17.733Z,12.2
2017-03-18T09:35:17.411Z,12.16
2017-03-18T09:36:17.697Z,12.21
2017-03-18T09:37:17.372Z,12.21
2017-03-18T09:38:17.657Z,12.23
2017-03-18T09:39:17.638Z,12.27
2017-03-18T09:40:17.605Z,12.3
2017-03-18T09:41:17.673Z,12.16
2017-03-18T09:42:17.266Z,12.06
2017-03-18T09:43:16.955Z,12.03
2017-03-18T09:44:17.285Z,12.09
2017-03-18T09:45:17.317Z,11.91
2017-03-18T09:46:17.194Z,11.86
2017-03-18T09:47:17.473Z,11.91
2017-03-18T09:48:17.461Z,11.79
2017-03-18T09:49:17.149Z,11.65
2017-03-18T09:50:17.431Z,11.47
2017-03-18T09:51:16.793Z,11.56
2017-03-18T09:52:17.389Z,11.56
2017-03-18T09:53:17.068Z,11.6
2017-03-18T09:54:17.349Z,11.6
2017-03-18T09:55:17.029Z,11.6
2017-03-18T09:56:16.998Z,11.57
2017-03-18T09:57:16.987Z,11.57
2017-03-18T09:58:17.259Z,11.48
2017-03-18T09:59:17.257Z,11.54
2017-03-18T10:00:16.924Z,11.42
2017-03-18T10:01:17.208Z,11.36
2017-03-18T10:02:16.898Z,11.5
2017-03-18T10:03:17.176Z,11.46
2017-03-18T10:04:16.873Z,11.5
2017-03-18T10:05:17.136Z,11.51
2017-03-18T10:06:17.124Z,11.54
2017-03-18T10:07:16.805Z,11.6
2017-03-18T10:08:17.076Z,11.6
2017-03-18T10:09:17.064Z,11.53
2017-03-18T10:10:17.052Z,11.73
2017-03-18T10:11:17.019Z,11.81
2017-03-18T10:12:16.999Z,11.84
2017-03-18T10:13:16.676Z,11.9
2017-03-18T10:14:16.966Z,11.9
2017-03-18T10:15:16.643Z,11.87
2017-03-18T10:16:16.924Z,11.89
2017-03-18T10:17:16.917Z,11.94
2017-03-18T10:18:16.594Z,12.05
2017-03-18T10:19:16.865Z,12.03
2017-03-18T10:20:16.537Z,11.95
2017-03-18T10:21:16.831Z,12.02
2017-03-18T10:22:16.510Z,12.02
2017-03-18T10:23:16.494Z,12.03
2017-03-18T10:24:16.764Z,12.1
2017-03-18T10:25:16.443Z,11.99
2017-03-18T10:26:16.762Z,12.02
2017-03-18T10:27:16.712Z,12.07
2017-03-18T10:28:16.681Z,12.06
2017-03-18T10:29:16.403Z,12.05
2017-03-18T10:30:16.381Z,12.15
2017-03-18T10:31:16.631Z,12.15
2017-03-18T10:32:16.021Z,12.21
2017-03-18T10:33:16.599Z,12.24
2017-03-18T10:34:16.593Z,12.17
2017-03-18T10:35:16.572Z,12.21
2017-03-18T10:36:16.271Z,12.27
2017-03-18T10:37:16.549Z,12.15
2017-03-18T10:38:16.517Z,12.12
2017-03-18T10:39:16.566Z,12.13
2017-03-18T10:40:16.460Z,12.24
2017-03-18T10:41:16.454Z,12.39
2017-03-18T10:42:16.137Z,12.37
2017-03-18T10:43:16.438Z,12.35
2017-03-18T10:44:16.415Z,12.23
2017-03-18T10:45:16.378Z,12.34
2017-03-18T10:46:15.739Z,12.35
2017-03-18T10:47:16.334Z,12.39
2017-03-18T10:48:16.356Z,12.42
2017-03-18T10:49:16.002Z,12.45
2017-03-18T10:50:16.281Z,12.31
2017-03-18T10:51:16.071Z,12.35
2017-03-18T10:52:15.964Z,12.43
2017-03-18T10:53:16.240Z,12.45
2017-03-18T10:54:16.238Z,12.46
2017-03-18T10:55:15.896Z,12.37
2017-03-18T10:56:16.167Z,12.37
2017-03-18T10:57:16.147Z,12.45
2017-03-18T10:58:16.135Z,12.6
2017-03-18T10:59:15.807Z,12.49
2017-03-18T11:00:16.105Z,12.61
2017-03-18T11:01:16.084Z,12.58
2017-03-18T11:02:16.095Z,12.63
2017-03-18T11:03:16.064Z,12.65
2017-03-18T11:04:15.726Z,12.65
2017-03-18T11:05:16.022Z,12.73
2017-03-18T11:06:15.991Z,12.7
2017-03-18T11:07:16.004Z,12.74
2017-03-18T11:08:15.963Z,12.67
2017-03-18T11:09:15.931Z,12.73
2017-03-18T11:10:15.905Z,12.76
2017-03-18T11:11:15.274Z,12.79
2017-03-18T11:12:15.869Z,12.73
2017-03-18T11:13:15.859Z,12.83
2017-03-18T11:14:15.527Z,13
2017-03-18T11:15:15.513Z,13
2017-03-18T11:16:15.801Z,13.1
2017-03-18T11:17:15.464Z,13.1
2017-03-18T11:18:15.771Z,13.37
2017-03-18T11:19:15.429Z,13.49
2017-03-18T11:20:15.421Z,13.49
2017-03-18T11:21:15.423Z,13.63
2017-03-18T11:22:15.716Z,13.77
2017-03-18T11:23:15.493Z,13.84
2017-03-18T11:24:15.672Z,13.9
2017-03-18T11:25:15.421Z,13.93
2017-03-18T11:26:15.610Z,14.14
2017-03-18T11:27:15.616Z,14.28
2017-03-18T11:28:15.591Z,14.25
2017-03-18T11:29:15.569Z,14.35
2017-03-18T11:30:15.247Z,14.36
2017-03-18T11:31:15.306Z,14.5
2017-03-18T11:32:15.530Z,14.58
2017-03-18T11:33:15.225Z,14.58
2017-03-18T11:34:15.177Z,14.4
2017-03-18T11:35:15.469Z,14.5
2017-03-18T11:36:15.448Z,14.17
2017-03-18T11:37:15.444Z,13.93
2017-03-18T11:38:15.409Z,13.7
2017-03-18T11:39:15.086Z,13.78
2017-03-18T11:40:15.385Z,13.57
2017-03-18T11:41:15.357Z,13.66
2017-03-18T11:42:15.050Z,13.57
2017-03-18T11:43:15.334Z,13.56
2017-03-18T11:44:14.991Z,13.55
2017-03-18T11:45:15.294Z,13.59
2017-03-18T11:46:15.007Z,13.63
2017-03-18T11:47:15.269Z,13.52
2017-03-18T11:48:15.245Z,13.6
2017-03-18T11:49:14.931Z,13.57
2017-03-18T11:50:14.905Z,13.56
2017-03-18T11:51:14.879Z,13.42
2017-03-18T11:52:15.177Z,13.48
2017-03-18T11:53:15.157Z,13.41
2017-03-18T11:54:14.837Z,13.35
2017-03-18T11:55:15.126Z,13.18
2017-03-18T11:56:15.103Z,12.96
2017-03-18T11:57:14.770Z,12.86
2017-03-18T11:58:14.804Z,12.98
2017-03-18T11:59:14.744Z,12.98
2017-03-18T12:00:14.765Z,13.07
2017-03-18T12:01:15.012Z,13.07
2017-03-18T12:02:15.000Z,13.08
2017-03-18T12:03:15.004Z,13.11
2017-03-18T12:04:14.964Z,13.28
2017-03-18T12:05:14.952Z,13.25
2017-03-18T12:06:14.922Z,13.19
2017-03-18T12:07:14.898Z,13.11
2017-03-18T12:08:14.571Z,13
2017-03-18T12:09:14.600Z,12.86
2017-03-18T12:10:14.840Z,12.85
2017-03-18T12:11:14.519Z,12.94
2017-03-18T12:12:14.803Z,12.98
2017-03-18T12:13:14.798Z,12.97
2017-03-18T12:14:14.777Z,13.04
2017-03-18T12:15:14.151Z,13.11
2017-03-18T12:16:14.757Z,13.18
2017-03-18T12:17:14.716Z,13.11
2017-03-18T12:18:14.098Z,12.96
2017-03-18T12:19:14.678Z,13.15
2017-03-18T12:20:14.660Z,13.07
2017-03-18T12:21:14.652Z,13
2017-03-18T12:22:14.630Z,13.01
2017-03-18T12:23:14.620Z,13.21
2017-03-18T12:24:14.300Z,13.26
2017-03-18T12:25:14.569Z,13.49
2017-03-18T12:26:14.548Z,13.52
2017-03-18T12:27:14.239Z,13.53
2017-03-18T12:28:14.558Z,13.37
2017-03-18T12:29:14.510Z,13.42
2017-03-18T12:30:14.191Z,13.26
2017-03-18T12:31:14.472Z,13.14
2017-03-18T12:32:13.841Z,13.16
2017-03-18T12:33:14.146Z,13.08
2017-03-18T12:34:14.406Z,13.11
2017-03-18T12:35:14.402Z,13.15
2017-03-18T12:36:14.370Z,13.16
2017-03-18T12:37:14.363Z,13.22
2017-03-18T12:38:14.040Z,13.26
2017-03-18T12:39:14.313Z,13.28
2017-03-18T12:40:13.998Z,13.4
2017-03-18T12:41:14.284Z,13.42
2017-03-18T12:42:13.952Z,13.49
2017-03-18T12:43:14.270Z,13.55
2017-03-18T12:44:14.242Z,13.49
2017-03-18T12:45:14.218Z,13.49
2017-03-18T12:46:13.903Z,13.59
2017-03-18T12:47:14.189Z,13.55
2017-03-18T12:48:13.882Z,13.52
2017-03-18T12:49:14.212Z,13.55
2017-03-18T12:50:14.147Z,13.48
2017-03-18T12:51:14.122Z,13.38
2017-03-18T12:52:13.789Z,13.21
2017-03-18T12:53:13.912Z,13.21
2017-03-18T12:54:14.094Z,13.22
2017-03-18T12:55:13.735Z,13.15
2017-03-18T12:56:13.821Z,13.03
2017-03-18T12:57:14.023Z,13.22
2017-03-18T12:58:14.009Z,13.04
2017-03-18T12:59:13.980Z,13.19
2017-03-18T13:00:13.951Z,13.06
2017-03-18T13:01:13.651Z,12.98
2017-03-18T13:02:13.988Z,13
2017-03-18T13:03:13.902Z,13
2017-03-18T13:04:13.668Z,13.06
2017-03-18T13:05:13.648Z,12.89
2017-03-18T13:06:13.953Z,13.01
2017-03-18T13:07:13.825Z,12.97
2017-03-18T13:08:13.807Z,12.96